createdAt,value
2022-11-04T00:03:59.861Z,99126.81
2022-11-04T00:09:02.769Z,99126.47
2022-11-04T00:14:09.348Z,99117.81
2022-11-04T00:19:12.496Z,99120.75
2022-11-04T00:24:45.313Z,99102.81
2022-11-04T00:29:49.788Z,99091.53
2022-11-04T00:34:53.177Z,99093.50
2022-11-04T00:39:56.762Z,99109.19
2022-11-04T00:45:01.351Z,99100.50
2022-11-04T00:50:04.507Z,99098.53
2022-11-04T00:55:08.619Z,99094.28
2022-11-04T01:00:15.003Z,99066.97
2022-11-04T01:05:18.419Z,99105.41
2022-11-04T01:10:21.513Z,99108.03
2022-11-04T01:15:26.009Z,99097.06
2022-11-04T01:20:29.189Z,99079.88
2022-11-04T01:25:32.270Z,99098.19
2022-11-04T01:30:38.968Z,99084.41
2022-11-04T01:35:42.990Z,99076.06
2022-11-04T01:40:46.100Z,99085.06
2022-11-04T01:45:54.958Z,99097.47
2022-11-04T01:50:58.523Z,99099.94
2022-11-04T01:56:12.291Z,99088.13
2022-11-04T02:01:17.413Z,99085.16
2022-11-04T02:06:22.669Z,99097.97
2022-11-04T02:11:43.268Z,99090.06
2022-11-04T02:16:50.991Z,99089.72
2022-11-04T02:22:23.064Z,99066.47
2022-11-04T02:27:49.260Z,99083.03
2022-11-04T02:33:22.343Z,99104.78
2022-11-04T02:38:35.340Z,99089.72
2022-11-04T02:43:51.052Z,99104.09
2022-11-04T02:49:01.746Z,99112.97
2022-11-04T02:54:10.797Z,99113.78
2022-11-04T02:59:20.863Z,99113.50
2022-11-04T03:04:30.426Z,99117.91
2022-11-04T03:09:35.929Z,99120.88
2022-11-04T03:14:44.266Z,99114.63
2022-11-04T03:19:54.418Z,99108.41
2022-11-04T03:24:59.245Z,99114.94
2022-11-04T03:30:06.295Z,99119.69
2022-11-04T03:35:12.524Z,99130.16
2022-11-04T03:40:16.805Z,99132.78
2022-11-04T03:45:20.512Z,99131.97
2022-11-04T03:50:30.345Z,99135.41
2022-11-04T03:55:44.605Z,99135.06
2022-11-04T04:00:53.739Z,99142.78
2022-11-04T04:06:05.182Z,99148.81
2022-11-04T04:11:14.614Z,99163.56
2022-11-04T04:16:24.737Z,99166.38
2022-11-04T04:21:36.386Z,99180.47
2022-11-04T04:26:59.868Z,99182.75
2022-11-04T04:32:05.034Z,99183.25
2022-11-04T04:37:13.516Z,99178.19
2022-11-04T04:42:34.537Z,99191.97
2022-11-04T04:47:44.412Z,99180.47
2022-11-04T04:52:51.657Z,99179.31
2022-11-04T04:57:54.663Z,99185.88
2022-11-04T05:02:57.691Z,99186.00
2022-11-04T05:08:08.169Z,99188.13
2022-11-04T05:13:30.229Z,99189.94
2022-11-04T05:18:33.524Z,99184.84
2022-11-04T05:23:38.095Z,99186.16
2022-11-04T05:28:41.110Z,99189.59
2022-11-04T05:33:44.164Z,99200.88
2022-11-04T05:38:52.019Z,99202.56
2022-11-04T05:43:56.013Z,99208.63
2022-11-04T05:48:59.342Z,99220.59
2022-11-04T05:54:03.897Z,99229.28
2022-11-04T05:59:06.987Z,99235.53
2022-11-04T06:04:15.809Z,99229.13
2022-11-04T06:09:20.362Z,99238.13
2022-11-04T06:14:25.003Z,99233.06
2022-11-04T06:19:28.200Z,99243.22
2022-11-04T06:24:32.557Z,99232.75
2022-11-04T06:29:36.697Z,99237.97
2022-11-04T06:34:39.994Z,99247.16
2022-11-04T06:39:44.419Z,99241.56
2022-11-04T06:44:47.449Z,99233.53
2022-11-04T06:49:50.572Z,99241.72
2022-11-04T06:54:55.074Z,99232.69
2022-11-04T06:59:58.500Z,99231.50
2022-11-04T07:05:01.503Z,99234.97
2022-11-04T07:10:06.863Z,99248.91
2022-11-04T07:15:10.779Z,99253.34
2022-11-04T07:20:14.237Z,99265.47
2022-11-04T07:25:18.933Z,99279.41
2022-11-04T07:30:22.147Z,99281.53
2022-11-04T07:35:25.375Z,99268.41
2022-11-04T07:40:29.904Z,99270.69
2022-11-04T07:45:32.902Z,99284.44
2022-11-04T07:50:36.565Z,99292.16
2022-11-04T07:55:43.608Z,99284.94
2022-11-04T08:00:47.068Z,99285.59
2022-11-04T08:05:56.515Z,99296.09
2022-11-04T08:11:03.751Z,99314.47
2022-11-04T08:16:09.719Z,99310.69
2022-11-04T08:21:13.185Z,99316.75
2022-11-04T08:26:19.669Z,99335.31
2022-11-04T08:31:25.724Z,99330.69
2022-11-04T08:36:31.417Z,99334.31
2022-11-04T08:41:37.364Z,99330.06
2022-11-04T08:46:41.153Z,99327.44
2022-11-04T08:51:47.171Z,99300.50
2022-11-04T08:56:51.611Z,99269.28
2022-11-04T09:01:55.030Z,99247.28
2022-11-04T09:06:59.251Z,99260.34
2022-11-04T09:12:03.791Z,99240.13
2022-11-04T09:17:07.005Z,99268.50
2022-11-04T09:22:10.207Z,99265.00
2022-11-04T09:27:14.858Z,99274.66
2022-11-04T09:32:18.001Z,99270.22
2022-11-04T09:37:21.227Z,99278.63
2022-11-04T09:42:41.282Z,99285.88
2022-11-04T09:47:46.065Z,99298.00
2022-11-04T09:52:55.562Z,99309.16
2022-11-04T09:58:00.449Z,99315.88
2022-11-04T10:03:18.043Z,99320.47
2022-11-04T10:08:49.335Z,99340.84
2022-11-04T10:14:10.681Z,99348.44
2022-11-04T10:19:28.704Z,99357.94
2022-11-04T10:24:48.864Z,99356.47
2022-11-04T10:29:56.338Z,99356.00
2022-11-04T10:35:03.231Z,99357.34
2022-11-04T10:40:19.362Z,99352.41
2022-11-04T10:45:32.073Z,99363.25
2022-11-04T10:50:38.714Z,99368.56
2022-11-04T10:55:49.296Z,99362.81
2022-11-04T11:00:54.819Z,99367.56
2022-11-04T11:06:22.690Z,99380.06
2022-11-04T11:11:48.193Z,99371.69
2022-11-04T11:16:52.636Z,99367.31
2022-11-04T11:21:57.174Z,99375.31
2022-11-04T11:27:02.328Z,99368.59
2022-11-04T11:32:08.078Z,99365.50
2022-11-04T11:37:24.504Z,99364.03
2022-11-04T11:42:27.881Z,99370.25
2022-11-04T11:47:42.217Z,99373.22
2022-11-04T11:52:46.582Z,99378.97
2022-11-04T12:09:23.338Z,99392.56
2022-11-04T12:14:44.821Z,99396.19
2022-11-04T12:20:10.159Z,99408.81
2022-11-04T12:25:24.084Z,99395.22
2022-11-04T12:30:33.864Z,99386.16
2022-11-04T12:35:58.293Z,99369.13
2022-11-04T12:46:41.767Z,99376.47
2022-11-04T12:51:54.823Z,99377.81
2022-11-04T12:57:19.695Z,99371.03
2022-11-04T13:02:27.592Z,99371.38
2022-11-04T13:07:36.120Z,99369.22
2022-11-04T13:12:42.817Z,99375.09
2022-11-04T13:17:48.664Z,99376.09
2022-11-04T13:22:58.970Z,99385.44
2022-11-04T13:28:05.480Z,99389.53
2022-11-04T13:33:17.134Z,99398.41
2022-11-04T13:38:24.296Z,99400.38
2022-11-04T13:43:42.865Z,99416.97
2022-11-04T13:48:55.965Z,99415.97
2022-11-04T13:54:00.530Z,99411.03
2022-11-04T13:59:08.699Z,99415.63
2022-11-04T14:04:38.832Z,99418.91
2022-11-04T14:10:01.820Z,99427.13
2022-11-04T14:15:12.400Z,99442.25
2022-11-04T14:20:25.903Z,99437.81
2022-11-04T14:25:36.274Z,99437.81
2022-11-04T14:30:47.988Z,99445.84
2022-11-04T14:35:52.487Z,99454.88
2022-11-04T14:41:17.348Z,99458.81
2022-11-04T14:46:23.724Z,99453.59
2022-11-04T14:51:30.325Z,99452.94
2022-11-04T14:56:35.016Z,99442.28
2022-11-04T15:01:40.033Z,99462.94
2022-11-04T15:06:55.783Z,99468.84
2022-11-04T15:12:25.456Z,99477.06
2022-11-04T15:17:31.309Z,99470.97
2022-11-04T15:22:34.533Z,99496.06
2022-11-04T15:27:38.959Z,99493.91
2022-11-04T15:32:42.048Z,99503.09
2022-11-04T15:37:45.970Z,99503.56
2022-11-04T15:42:58.906Z,99510.94
2022-11-04T15:48:28.155Z,99515.81
2022-11-04T15:53:31.886Z,99515.00
2022-11-04T15:58:36.681Z,99528.44
2022-11-04T16:03:39.757Z,99523.34
2022-11-04T16:08:43.099Z,99534.31
2022-11-04T16:13:48.151Z,99537.41
2022-11-04T16:18:54.244Z,99536.75
2022-11-04T16:24:02.095Z,99549.19
2022-11-04T16:29:10.271Z,99546.06
2022-11-04T16:34:14.851Z,99552.44
2022-11-04T16:39:17.763Z,99559.81
2022-11-04T16:44:24.351Z,99562.56
2022-11-04T16:49:27.363Z,99565.66
2022-11-04T16:54:30.782Z,99570.41
2022-11-04T16:59:35.533Z,99562.69
2022-11-04T17:04:38.580Z,99570.03
2022-11-04T17:09:41.936Z,99564.78
2022-11-04T17:14:46.597Z,99566.44
2022-11-04T17:19:49.674Z,99573.50
2022-11-04T17:24:52.820Z,99586.59
2022-11-04T17:29:57.251Z,99576.91
2022-11-04T17:35:00.265Z,99583.84
2022-11-04T17:40:03.530Z,99578.75
2022-11-04T17:45:08.970Z,99581.50
2022-11-04T17:50:15.028Z,99584.78
2022-11-04T17:55:21.860Z,99588.03
2022-11-04T18:00:29.723Z,99595.38
2022-11-04T18:05:32.940Z,99601.78
2022-11-04T18:10:36.134Z,99600.28
2022-11-04T18:15:40.532Z,99596.16
2022-11-04T18:20:43.513Z,99595.47
2022-11-04T18:25:50.544Z,99599.09
2022-11-04T18:30:55.317Z,99601.88
2022-11-04T18:36:03.282Z,99591.41
2022-11-04T18:41:06.659Z,99599.91
2022-11-04T18:46:13.160Z,99603.88
2022-11-04T18:51:16.235Z,99607.47
2022-11-04T18:56:22.696Z,99616.16
2022-11-04T19:01:29.745Z,99617.81
2022-11-04T19:06:35.347Z,99618.78
2022-11-04T19:11:41.384Z,99625.66
2022-11-04T19:16:45.690Z,99625.50
2022-11-04T19:21:49.747Z,99628.94
2022-11-04T19:26:52.721Z,99630.75
2022-11-04T19:31:57.489Z,99635.97
2022-11-04T19:37:00.467Z,99639.56
2022-11-04T19:42:23.548Z,99658.75
2022-11-04T19:47:28.075Z,99664.97
2022-11-04T19:52:34.589Z,99675.44
2022-11-04T19:57:40.863Z,99687.72
2022-11-04T20:02:45.283Z,99685.94
2022-11-04T20:07:48.497Z,99695.72
2022-11-04T20:13:09.425Z,99706.91
2022-11-04T20:18:14.040Z,99714.75
2022-11-04T20:23:17.048Z,99719.03
2022-11-04T20:28:20.052Z,99726.88
2022-11-04T20:33:24.317Z,99735.41
2022-11-04T20:38:27.392Z,99737.19
2022-11-04T20:43:33.291Z,99748.34
2022-11-04T20:48:38.189Z,99754.72
2022-11-04T20:53:42.049Z,99765.22
2022-11-04T20:58:48.535Z,99771.25
2022-11-04T21:03:53.538Z,99769.47
2022-11-04T21:08:57.350Z,99767.84
2022-11-04T21:14:00.713Z,99776.00
2022-11-04T21:19:05.869Z,99774.84
2022-11-04T21:24:08.899Z,99775.84
2022-11-04T21:29:14.559Z,99780.41
2022-11-04T21:34:19.104Z,99782.66
2022-11-04T21:39:22.979Z,99778.16
2022-11-04T21:44:26.161Z,99786.16
2022-11-04T21:49:30.658Z,99784.38
2022-11-04T21:54:33.905Z,99790.59
2022-11-04T21:59:37.021Z,99797.47
2022-11-04T22:04:41.319Z,99800.41
2022-11-04T22:09:44.467Z,99804.44
2022-11-04T22:14:47.314Z,99807.19
2022-11-04T22:19:51.835Z,99800.97
2022-11-04T22:25:04.006Z,99799.19
2022-11-04T22:30:10.775Z,99806.06
2022-11-04T22:35:15.229Z,99804.44
2022-11-04T22:40:18.385Z,99816.56
2022-11-04T22:45:21.359Z,99814.75
2022-11-04T22:50:25.678Z,99814.75
2022-11-04T22:55:28.898Z,99818.34
2022-11-04T23:00:32.233Z,99831.44
2022-11-04T23:05:36.784Z,99825.69
2022-11-04T23:10:57.186Z,99833.00
2022-11-04T23:16:18.306Z,99828.19
2022-11-04T23:21:42.572Z,99834.72
2022-11-04T23:26:46.841Z,99845.31
2022-11-04T23:31:50.856Z,99849.56
2022-11-04T23:37:13.607Z,99849.56
2022-11-04T23:42:19.108Z,99855.78
2022-11-04T23:47:38.755Z,99858.69
2022-11-04T23:53:00.613Z,99872.63
2022-11-04T23:58:21.132Z,99868.50
